sensor_id;sensor_type;location;lat;lon;timestamp;P1;durP1;ratioP1;P2;durP2;ratioP2
29838;SDS011;18669;53.356;-1.464;2022-10-14T00:00:22;14.40;;;5.25;;
29838;SDS011;18669;53.356;-1.464;2022-10-14T00:02:51;17.73;;;5.60;;
29838;SDS011;18669;53.356;-1.464;2022-10-14T00:05:18;18.42;;;5.93;;
29838;SDS011;18669;53.356;-1.464;2022-10-14T00:07:44;12.65;;;5.15;;
29838;SDS011;18669;53.356;-1.464;2022-10-14T00:10:10;14.43;;;5.22;;
29838;SDS011;18669;53.356;-1.464;2022-10-14T00:12:37;18.85;;;6.20;;
29838;SDS011;18669;53.356;-1.464;2022-10-14T00:17:30;13.38;;;5.50;;
29838;SDS011;18669;53.356;-1.464;2022-10-14T00:22:22;11.35;;;5.05;;
29838;SDS011;18669;53.356;-1.464;2022-10-14T00:27:14;14.32;;;6.80;;
29838;SDS011;18669;53.356;-1.464;2022-10-14T00:32:06;12.40;;;5.43;;
29838;SDS011;18669;53.356;-1.464;2022-10-14T00:36:58;13.52;;;5.22;;
29838;SDS011;18669;53.356;-1.464;2022-10-14T00:39:24;10.98;;;5.15;;
29838;SDS011;18669;53.356;-1.464;2022-10-14T00:46:43;15.07;;;5.63;;
29838;SDS011;18669;53.356;-1.464;2022-10-14T00:49:12;13.93;;;5.70;;
29838;SDS011;18669;53.356;-1.464;2022-10-14T00:51:41;12.48;;;5.00;;
29838;SDS011;18669;53.356;-1.464;2022-10-14T00:54:12;11.75;;;5.30;;
29838;SDS011;18669;53.356;-1.464;2022-10-14T00:56:41;12.43;;;5.70;;
29838;SDS011;18669;53.356;-1.464;2022-10-14T00:59:09;15.68;;;5.28;;
29838;SDS011;18669;53.356;-1.464;2022-10-14T01:01:37;16.20;;;5.30;;
29838;SDS011;18669;53.356;-1.464;2022-10-14T01:09:17;10.52;;;5.15;;
29838;SDS011;18669;53.356;-1.464;2022-10-14T01:17:20;17.98;;;5.80;;
29838;SDS011;18669;53.356;-1.464;2022-10-14T01:25:56;12.85;;;5.78;;
29838;SDS011;18669;53.356;-1.464;2022-10-14T01:31:09;15.48;;;5.38;;
29838;SDS011;18669;53.356;-1.464;2022-10-14T01:33:41;14.38;;;6.00;;
29838;SDS011;18669;53.356;-1.464;2022-10-14T01:38:48;19.83;;;5.90;;
29838;SDS011;18669;53.356;-1.464;2022-10-14T01:41:29;19.90;;;6.15;;
29838;SDS011;18669;53.356;-1.464;2022-10-14T01:44:01;14.30;;;5.75;;
29838;SDS011;18669;53.356;-1.464;2022-10-14T01:46:32;10.57;;;5.65;;
29838;SDS011;18669;53.356;-1.464;2022-10-14T01:49:03;11.05;;;5.22;;
29838;SDS011;18669;53.356;-1.464;2022-10-14T01:52:18;15.38;;;6.40;;
29838;SDS011;18669;53.356;-1.464;2022-10-14T01:54:38;10.60;;;6.07;;
29838;SDS011;18669;53.356;-1.464;2022-10-14T01:57:08;11.52;;;6.55;;
29838;SDS011;18669;53.356;-1.464;2022-10-14T01:59:39;16.27;;;6.68;;
29838;SDS011;18669;53.356;-1.464;2022-10-14T02:02:07;16.63;;;6.53;;
29838;SDS011;18669;53.356;-1.464;2022-10-14T02:15:24;19.02;;;6.93;;
29838;SDS011;18669;53.356;-1.464;2022-10-14T02:17:56;13.65;;;5.82;;
29838;SDS011;18669;53.356;-1.464;2022-10-14T02:23:10;15.15;;;5.47;;
29838;SDS011;18669;53.356;-1.464;2022-10-14T02:25:41;13.80;;;5.50;;
29838;SDS011;18669;53.356;-1.464;2022-10-14T02:28:11;13.13;;;5.93;;
29838;SDS011;18669;53.356;-1.464;2022-10-14T02:30:43;13.90;;;5.43;;
29838;SDS011;18669;53.356;-1.464;2022-10-14T02:33:17;20.10;;;6.05;;
29838;SDS011;18669;53.356;-1.464;2022-10-14T02:35:46;17.95;;;5.88;;
29838;SDS011;18669;53.356;-1.464;2022-10-14T02:38:15;15.38;;;5.30;;
29838;SDS011;18669;53.356;-1.464;2022-10-14T02:40:48;16.30;;;6.53;;
29838;SDS011;18669;53.356;-1.464;2022-10-14T02:43:15;12.48;;;5.53;;
29838;SDS011;18669;53.356;-1.464;2022-10-14T02:45:43;13.95;;;6.35;;
29838;SDS011;18669;53.356;-1.464;2022-10-14T02:48:09;11.82;;;6.10;;
29838;SDS011;18669;53.356;-1.464;2022-10-14T02:50:36;17.92;;;6.25;;
29838;SDS011;18669;53.356;-1.464;2022-10-14T02:53:03;13.68;;;5.70;;
29838;SDS011;18669;53.356;-1.464;2022-10-14T02:57:55;19.45;;;6.07;;
29838;SDS011;18669;53.356;-1.464;2022-10-14T03:02:48;12.68;;;6.10;;
29838;SDS011;18669;53.356;-1.464;2022-10-14T03:05:14;20.27;;;7.13;;
29838;SDS011;18669;53.356;-1.464;2022-10-14T03:10:07;10.50;;;6.30;;
29838;SDS011;18669;53.356;-1.464;2022-10-14T03:12:33;11.00;;;6.38;;
29838;SDS011;18669;53.356;-1.464;2022-10-14T03:17:25;13.52;;;6.68;;
29838;SDS011;18669;53.356;-1.464;2022-10-14T03:22:17;14.48;;;6.68;;
29838;SDS011;18669;53.356;-1.464;2022-10-14T03:27:10;17.55;;;6.80;;
29838;SDS011;18669;53.356;-1.464;2022-10-14T03:32:02;17.77;;;6.65;;
29838;SDS011;18669;53.356;-1.464;2022-10-14T03:34:28;14.88;;;7.38;;
29838;SDS011;18669;53.356;-1.464;2022-10-14T03:39:20;11.45;;;6.88;;
29838;SDS011;18669;53.356;-1.464;2022-10-14T03:44:13;12.52;;;6.70;;
29838;SDS011;18669;53.356;-1.464;2022-10-14T03:49:05;13.90;;;6.03;;
29838;SDS011;18669;53.356;-1.464;2022-10-14T03:51:31;14.38;;;6.40;;
29838;SDS011;18669;53.356;-1.464;2022-10-14T03:53:57;12.15;;;6.32;;
29838;SDS011;18669;53.356;-1.464;2022-10-14T03:58:49;15.90;;;6.10;;
29838;SDS011;18669;53.356;-1.464;2022-10-14T04:01:15;12.15;;;5.97;;
29838;SDS011;18669;53.356;-1.464;2022-10-14T04:03:41;14.18;;;6.15;;
29838;SDS011;18669;53.356;-1.464;2022-10-14T04:06:11;11.82;;;5.80;;
29838;SDS011;18669;53.356;-1.464;2022-10-14T04:08:41;11.88;;;5.50;;
29838;SDS011;18669;53.356;-1.464;2022-10-14T04:11:08;10.88;;;5.35;;
29838;SDS011;18669;53.356;-1.464;2022-10-14T04:13:34;15.25;;;5.10;;
29838;SDS011;18669;53.356;-1.464;2022-10-14T04:16:02;10.52;;;5.18;;
29838;SDS011;18669;53.356;-1.464;2022-10-14T04:18:29;11.98;;;4.93;;
29838;SDS011;18669;53.356;-1.464;2022-10-14T04:21:03;11.63;;;5.50;;
29838;SDS011;18669;53.356;-1.464;2022-10-14T04:23:32;9.93;;;5.75;;
29838;SDS011;18669;53.356;-1.464;2022-10-14T04:26:02;9.93;;;5.07;;
29838;SDS011;18669;53.356;-1.464;2022-10-14T04:28:29;13.07;;;6.10;;
29838;SDS011;18669;53.356;-1.464;2022-10-14T04:30:58;10.48;;;5.10;;
29838;SDS011;18669;53.356;-1.464;2022-10-14T04:33:25;11.68;;;5.30;;
29838;SDS011;18669;53.356;-1.464;2022-10-14T04:35:58;9.88;;;5.60;;
29838;SDS011;18669;53.356;-1.464;2022-10-14T04:38:25;10.00;;;5.28;;
29838;SDS011;18669;53.356;-1.464;2022-10-14T04:40:52;11.77;;;5.45;;
29838;SDS011;18669;53.356;-1.464;2022-10-14T04:43:19;13.32;;;6.72;;
29838;SDS011;18669;53.356;-1.464;2022-10-14T04:45:46;12.85;;;6.18;;
29838;SDS011;18669;53.356;-1.464;2022-10-14T04:48:13;16.83;;;6.18;;
29838;SDS011;18669;53.356;-1.464;2022-10-14T04:50:39;11.20;;;6.18;;
29838;SDS011;18669;53.356;-1.464;2022-10-14T04:55:31;14.73;;;6.50;;
29838;SDS011;18669;53.356;-1.464;2022-10-14T05:00:23;14.10;;;5.60;;
29838;SDS011;18669;53.356;-1.464;2022-10-14T05:05:15;8.55;;;6.00;;
29838;SDS011;18669;53.356;-1.464;2022-10-14T05:07:41;16.48;;;6.88;;
29838;SDS011;18669;53.356;-1.464;2022-10-14T05:12:35;12.32;;;6.75;;
29838;SDS011;18669;53.356;-1.464;2022-10-14T05:15:02;11.57;;;6.20;;
29838;SDS011;18669;53.356;-1.464;2022-10-14T05:17:30;13.85;;;6.70;;
29838;SDS011;18669;53.356;-1.464;2022-10-14T05:19:57;12.73;;;7.03;;
29838;SDS011;18669;53.356;-1.464;2022-10-14T05:22:23;14.07;;;6.32;;
29838;SDS011;18669;53.356;-1.464;2022-10-14T05:24:51;17.55;;;6.45;;
29838;SDS011;18669;53.356;-1.464;2022-10-14T05:29:43;17.48;;;6.30;;
29838;SDS011;18669;53.356;-1.464;2022-10-14T05:32:09;11.40;;;5.85;;
29838;SDS011;18669;53.356;-1.464;2022-10-14T05:34:35;17.05;;;6.95;;
29838;SDS011;18669;53.356;-1.464;2022-10-14T05:37:02;13.52;;;6.55;;
29838;SDS011;18669;53.356;-1.464;2022-10-14T05:39:28;14.45;;;7.43;;
29838;SDS011;18669;53.356;-1.464;2022-10-14T05:41:55;16.50;;;7.53;;
29838;SDS011;18669;53.356;-1.464;2022-10-14T05:44:22;18.58;;;7.85;;
29838;SDS011;18669;53.356;-1.464;2022-10-14T05:46:49;17.30;;;6.95;;
29838;SDS011;18669;53.356;-1.464;2022-10-14T05:49:16;15.18;;;8.18;;
29838;SDS011;18669;53.356;-1.464;2022-10-14T05:51:44;13.63;;;7.70;;
29838;SDS011;18669;53.356;-1.464;2022-10-14T05:56:37;17.58;;;7.82;;
29838;SDS011;18669;53.356;-1.464;2022-10-14T06:01:29;16.95;;;9.20;;
29838;SDS011;18669;53.356;-1.464;2022-10-14T06:03:59;17.55;;;9.38;;
29838;SDS011;18669;53.356;-1.464;2022-10-14T06:08:53;16.65;;;8.85;;
29838;SDS011;18669;53.356;-1.464;2022-10-14T06:11:20;18.17;;;9.93;;
29838;SDS011;18669;53.356;-1.464;2022-10-14T06:16:12;19.77;;;9.85;;
29838;SDS011;18669;53.356;-1.464;2022-10-14T06:18:39;21.52;;;10.40;;
29838;SDS011;18669;53.356;-1.464;2022-10-14T06:23:32;48.28;;;27.13;;
29838;SDS011;18669;53.356;-1.464;2022-10-14T06:28:27;22.90;;;11.07;;
29838;SDS011;18669;53.356;-1.464;2022-10-14T06:33:19;22.33;;;11.80;;
29838;SDS011;18669;53.356;-1.464;2022-10-14T06:35:47;19.70;;;11.07;;
29838;SDS011;18669;53.356;-1.464;2022-10-14T06:38:13;20.88;;;11.65;;
29838;SDS011;18669;53.356;-1.464;2022-10-14T06:40:40;28.58;;;12.07;;
29838;SDS011;18669;53.356;-1.464;2022-10-14T06:43:06;21.65;;;11.65;;
29838;SDS011;18669;53.356;-1.464;2022-10-14T06:45:32;21.00;;;11.38;;
29838;SDS011;18669;53.356;-1.464;2022-10-14T06:47:59;22.95;;;12.10;;
29838;SDS011;18669;53.356;-1.464;2022-10-14T06:52:51;23.93;;;12.13;;
29838;SDS011;18669;53.356;-1.464;2022-10-14T06:57:44;32.25;;;12.52;;
29838;SDS011;18669;53.356;-1.464;2022-10-14T07:00:10;25.67;;;12.38;;
29838;SDS011;18669;53.356;-1.464;2022-10-14T07:02:36;23.83;;;12.65;;
29838;SDS011;18669;53.356;-1.464;2022-10-14T07:05:03;23.65;;;13.27;;
29838;SDS011;18669;53.356;-1.464;2022-10-14T07:07:30;23.35;;;12.45;;
29838;SDS011;18669;53.356;-1.464;2022-10-14T07:09:57;24.92;;;13.88;;
29838;SDS011;18669;53.356;-1.464;2022-10-14T07:12:24;27.13;;;13.52;;
29838;SDS011;18669;53.356;-1.464;2022-10-14T07:14:51;31.20;;;14.13;;
29838;SDS011;18669;53.356;-1.464;2022-10-14T07:17:17;25.38;;;13.65;;
29838;SDS011;18669;53.356;-1.464;2022-10-14T07:19:44;25.52;;;14.30;;
29838;SDS011;18669;53.356;-1.464;2022-10-14T07:22:10;29.95;;;14.23;;
29838;SDS011;18669;53.356;-1.464;2022-10-14T07:24:37;24.10;;;13.05;;
29838;SDS011;18669;53.356;-1.464;2022-10-14T07:29:29;27.17;;;14.02;;
29838;SDS011;18669;53.356;-1.464;2022-10-14T07:34:21;20.73;;;12.90;;
29838;SDS011;18669;53.356;-1.464;2022-10-14T07:36:47;22.60;;;13.38;;
29838;SDS011;18669;53.356;-1.464;2022-10-14T07:41:40;23.77;;;13.85;;
29838;SDS011;18669;53.356;-1.464;2022-10-14T07:44:06;27.90;;;14.20;;
29838;SDS011;18669;53.356;-1.464;2022-10-14T07:46:35;25.10;;;13.82;;
29838;SDS011;18669;53.356;-1.464;2022-10-14T07:49:05;29.77;;;14.55;;
29838;SDS011;18669;53.356;-1.464;2022-10-14T07:51:52;28.27;;;14.30;;
29838;SDS011;18669;53.356;-1.464;2022-10-14T07:56:46;26.58;;;13.77;;
29838;SDS011;18669;53.356;-1.464;2022-10-14T07:59:15;30.67;;;15.88;;
29838;SDS011;18669;53.356;-1.464;2022-10-14T08:01:44;27.15;;;14.93;;
29838;SDS011;18669;53.356;-1.464;2022-10-14T08:04:14;24.17;;;13.15;;
29838;SDS011;18669;53.356;-1.464;2022-10-14T08:06:40;27.58;;;14.20;;
29838;SDS011;18669;53.356;-1.464;2022-10-14T08:09:09;20.25;;;12.40;;
29838;SDS011;18669;53.356;-1.464;2022-10-14T08:11:37;29.38;;;14.80;;
29838;SDS011;18669;53.356;-1.464;2022-10-14T08:14:04;26.00;;;14.07;;
29838;SDS011;18669;53.356;-1.464;2022-10-14T08:16:31;22.92;;;12.38;;
29838;SDS011;18669;53.356;-1.464;2022-10-14T08:19:01;27.23;;;13.20;;
29838;SDS011;18669;53.356;-1.464;2022-10-14T08:21:30;24.38;;;13.30;;
29838;SDS011;18669;53.356;-1.464;2022-10-14T08:23:57;24.58;;;12.93;;
29838;SDS011;18669;53.356;-1.464;2022-10-14T08:26:27;19.42;;;11.93;;
29838;SDS011;18669;53.356;-1.464;2022-10-14T08:28:59;35.08;;;11.98;;
29838;SDS011;18669;53.356;-1.464;2022-10-14T08:31:27;19.58;;;11.13;;
29838;SDS011;18669;53.356;-1.464;2022-10-14T08:33:53;19.05;;;10.38;;
29838;SDS011;18669;53.356;-1.464;2022-10-14T08:36:20;16.70;;;9.75;;
29838;SDS011;18669;53.356;-1.464;2022-10-14T08:38:46;11.55;;;8.20;;
29838;SDS011;18669;53.356;-1.464;2022-10-14T08:44:04;12.35;;;6.43;;
29838;SDS011;18669;53.356;-1.464;2022-10-14T08:46:50;15.93;;;6.07;;
29838;SDS011;18669;53.356;-1.464;2022-10-14T08:49:31;7.35;;;4.88;;
29838;SDS011;18669;53.356;-1.464;2022-10-14T08:52:29;7.38;;;4.90;;
29838;SDS011;18669;53.356;-1.464;2022-10-14T08:55:01;6.75;;;4.65;;
29838;SDS011;18669;53.356;-1.464;2022-10-14T08:57:53;7.20;;;4.20;;
29838;SDS011;18669;53.356;-1.464;2022-10-14T09:00:24;13.13;;;4.97;;
29838;SDS011;18669;53.356;-1.464;2022-10-14T09:02:54;6.45;;;4.15;;
29838;SDS011;18669;53.356;-1.464;2022-10-14T09:05:23;5.85;;;3.67;;
29838;SDS011;18669;53.356;-1.464;2022-10-14T09:07:52;8.35;;;3.67;;
29838;SDS011;18669;53.356;-1.464;2022-10-14T09:13:23;7.10;;;3.22;;
29838;SDS011;18669;53.356;-1.464;2022-10-14T09:15:59;4.53;;;3.35;;
29838;SDS011;18669;53.356;-1.464;2022-10-14T09:18:41;6.82;;;2.92;;
29838;SDS011;18669;53.356;-1.464;2022-10-14T09:21:26;5.28;;;3.00;;
29838;SDS011;18669;53.356;-1.464;2022-10-14T09:23:59;4.30;;;2.90;;
29838;SDS011;18669;53.356;-1.464;2022-10-14T09:26:34;6.57;;;3.58;;
29838;SDS011;18669;53.356;-1.464;2022-10-14T09:29:08;4.60;;;3.13;;
29838;SDS011;18669;53.356;-1.464;2022-10-14T09:31:52;4.15;;;1.92;;
29838;SDS011;18669;53.356;-1.464;2022-10-14T09:37:03;2.05;;;1.58;;
29838;SDS011;18669;53.356;-1.464;2022-10-14T09:39:53;2.97;;;1.40;;
29838;SDS011;18669;53.356;-1.464;2022-10-14T09:42:25;2.50;;;1.25;;
29838;SDS011;18669;53.356;-1.464;2022-10-14T09:45:10;3.38;;;1.17;;
29838;SDS011;18669;53.356;-1.464;2022-10-14T09:47:40;7.28;;;1.33;;
29838;SDS011;18669;53.356;-1.464;2022-10-14T09:50:17;1.23;;;1.15;;
29838;SDS011;18669;53.356;-1.464;2022-10-14T09:52:50;8.55;;;1.40;;
29838;SDS011;18669;53.356;-1.464;2022-10-14T09:55:19;2.10;;;1.15;;
29838;SDS011;18669;53.356;-1.464;2022-10-14T10:00:49;8.07;;;1.30;;
29838;SDS011;18669;53.356;-1.464;2022-10-14T10:03:39;5.85;;;1.50;;
29838;SDS011;18669;53.356;-1.464;2022-10-14T10:06:08;10.98;;;1.30;;
29838;SDS011;18669;53.356;-1.464;2022-10-14T10:08:36;2.13;;;1.20;;
29838;SDS011;18669;53.356;-1.464;2022-10-14T10:11:10;4.30;;;1.45;;
29838;SDS011;18669;53.356;-1.464;2022-10-14T10:13:44;4.10;;;1.45;;
29838;SDS011;18669;53.356;-1.464;2022-10-14T10:16:27;3.42;;;1.45;;
29838;SDS011;18669;53.356;-1.464;2022-10-14T10:19:18;2.50;;;1.23;;
29838;SDS011;18669;53.356;-1.464;2022-10-14T10:24:44;2.88;;;1.30;;
29838;SDS011;18669;53.356;-1.464;2022-10-14T10:27:18;4.40;;;1.20;;
29838;SDS011;18669;53.356;-1.464;2022-10-14T10:29:48;3.67;;;1.27;;
29838;SDS011;18669;53.356;-1.464;2022-10-14T10:32:31;2.00;;;1.15;;
29838;SDS011;18669;53.356;-1.464;2022-10-14T10:40:56;6.20;;;1.63;;
29838;SDS011;18669;53.356;-1.464;2022-10-14T10:44:03;7.25;;;3.00;;
29838;SDS011;18669;53.356;-1.464;2022-10-14T10:49:36;4.47;;;1.23;;
29838;SDS011;18669;53.356;-1.464;2022-10-14T10:55:38;3.28;;;1.20;;
29838;SDS011;18669;53.356;-1.464;2022-10-14T10:58:41;3.53;;;1.27;;
29838;SDS011;18669;53.356;-1.464;2022-10-14T11:01:38;3.20;;;1.20;;
29838;SDS011;18669;53.356;-1.464;2022-10-14T11:04:28;1.33;;;1.10;;
29838;SDS011;18669;53.356;-1.464;2022-10-14T11:09:51;7.47;;;1.40;;
29838;SDS011;18669;53.356;-1.464;2022-10-14T11:12:38;5.45;;;1.00;;
29838;SDS011;18669;53.356;-1.464;2022-10-14T11:15:19;1.85;;;0.90;;
29838;SDS011;18669;53.356;-1.464;2022-10-14T11:18:02;3.92;;;1.00;;
29838;SDS011;18669;53.356;-1.464;2022-10-14T11:20:42;1.15;;;0.80;;
29838;SDS011;18669;53.356;-1.464;2022-10-14T11:31:42;3.97;;;1.20;;
29838;SDS011;18669;53.356;-1.464;2022-10-14T11:47:40;9.30;;;1.63;;
29838;SDS011;18669;53.356;-1.464;2022-10-14T11:55:20;4.70;;;1.20;;
29838;SDS011;18669;53.356;-1.464;2022-10-14T11:57:52;2.60;;;1.00;;
29838;SDS011;18669;53.356;-1.464;2022-10-14T12:00:20;3.85;;;1.40;;
29838;SDS011;18669;53.356;-1.464;2022-10-14T12:05:34;4.97;;;1.13;;
29838;SDS011;18669;53.356;-1.464;2022-10-14T12:08:14;1.45;;;0.85;;
29838;SDS011;18669;53.356;-1.464;2022-10-14T12:17:19;6.65;;;1.42;;
29838;SDS011;18669;53.356;-1.464;2022-10-14T12:20:06;2.88;;;1.75;;
29838;SDS011;18669;53.356;-1.464;2022-10-14T12:22:47;3.40;;;1.30;;
29838;SDS011;18669;53.356;-1.464;2022-10-14T12:25:15;2.72;;;1.33;;
29838;SDS011;18669;53.356;-1.464;2022-10-14T12:27:43;4.90;;;1.20;;
29838;SDS011;18669;53.356;-1.464;2022-10-14T12:32:59;7.82;;;1.30;;
29838;SDS011;18669;53.356;-1.464;2022-10-14T12:35:46;3.78;;;1.27;;
29838;SDS011;18669;53.356;-1.464;2022-10-14T12:38:18;8.13;;;0.93;;
29838;SDS011;18669;53.356;-1.464;2022-10-14T12:40:46;3.00;;;0.80;;
29838;SDS011;18669;53.356;-1.464;2022-10-14T12:43:15;2.90;;;1.20;;
29838;SDS011;18669;53.356;-1.464;2022-10-14T12:45:50;5.85;;;1.15;;
29838;SDS011;18669;53.356;-1.464;2022-10-14T12:48:25;3.35;;;1.00;;
29838;SDS011;18669;53.356;-1.464;2022-10-14T12:51:02;5.38;;;0.90;;
29838;SDS011;18669;53.356;-1.464;2022-10-14T12:53:38;3.80;;;0.98;;
29838;SDS011;18669;53.356;-1.464;2022-10-14T12:56:25;6.18;;;1.35;;
29838;SDS011;18669;53.356;-1.464;2022-10-14T12:58:55;2.58;;;1.08;;
29838;SDS011;18669;53.356;-1.464;2022-10-14T13:01:27;3.75;;;1.02;;
29838;SDS011;18669;53.356;-1.464;2022-10-14T13:03:56;2.13;;;0.90;;
29838;SDS011;18669;53.356;-1.464;2022-10-14T13:06:30;3.90;;;1.10;;
29838;SDS011;18669;53.356;-1.464;2022-10-14T13:11:41;3.90;;;0.95;;
29838;SDS011;18669;53.356;-1.464;2022-10-14T13:14:20;3.10;;;0.90;;
29838;SDS011;18669;53.356;-1.464;2022-10-14T13:21:58;7.68;;;1.90;;
29838;SDS011;18669;53.356;-1.464;2022-10-14T13:24:37;3.28;;;0.90;;
29838;SDS011;18669;53.356;-1.464;2022-10-14T13:37:57;2.67;;;0.98;;
29838;SDS011;18669;53.356;-1.464;2022-10-14T13:40:33;5.93;;;1.38;;
29838;SDS011;18669;53.356;-1.464;2022-10-14T13:43:44;6.90;;;1.35;;
29838;SDS011;18669;53.356;-1.464;2022-10-14T13:46:15;10.35;;;5.13;;
29838;SDS011;18669;53.356;-1.464;2022-10-14T13:48:47;8.75;;;3.03;;
29838;SDS011;18669;53.356;-1.464;2022-10-14T13:51:26;27.98;;;6.40;;
29838;SDS011;18669;53.356;-1.464;2022-10-14T13:54:15;6.20;;;2.08;;
29838;SDS011;18669;53.356;-1.464;2022-10-14T13:59:27;7.30;;;1.80;;
29838;SDS011;18669;53.356;-1.464;2022-10-14T14:01:55;5.95;;;1.40;;
29838;SDS011;18669;53.356;-1.464;2022-10-14T14:04:24;9.55;;;2.28;;
29838;SDS011;18669;53.356;-1.464;2022-10-14T14:06:53;4.05;;;1.63;;
29838;SDS011;18669;53.356;-1.464;2022-10-14T14:09:20;5.68;;;2.25;;
29838;SDS011;18669;53.356;-1.464;2022-10-14T14:11:50;10.43;;;3.13;;
29838;SDS011;18669;53.356;-1.464;2022-10-14T14:14:20;6.63;;;2.10;;
29838;SDS011;18669;53.356;-1.464;2022-10-14T14:19:22;5.53;;;1.38;;
29838;SDS011;18669;53.356;-1.464;2022-10-14T14:22:04;4.90;;;1.85;;
29838;SDS011;18669;53.356;-1.464;2022-10-14T14:24:52;7.50;;;1.90;;
29838;SDS011;18669;53.356;-1.464;2022-10-14T14:27:34;13.32;;;2.60;;
29838;SDS011;18669;53.356;-1.464;2022-10-14T14:30:01;8.48;;;2.40;;
29838;SDS011;18669;53.356;-1.464;2022-10-14T14:32:34;7.25;;;1.80;;
29838;SDS011;18669;53.356;-1.464;2022-10-14T14:35:01;4.20;;;1.60;;
29838;SDS011;18669;53.356;-1.464;2022-10-14T14:37:33;4.32;;;1.30;;
29838;SDS011;18669;53.356;-1.464;2022-10-14T14:40:05;5.10;;;1.20;;
29838;SDS011;18669;53.356;-1.464;2022-10-14T14:42:39;7.75;;;1.60;;
29838;SDS011;18669;53.356;-1.464;2022-10-14T14:45:12;4.57;;;1.50;;
29838;SDS011;18669;53.356;-1.464;2022-10-14T14:47:46;3.03;;;1.65;;
29838;SDS011;18669;53.356;-1.464;2022-10-14T14:50:15;9.60;;;2.55;;
29838;SDS011;18669;53.356;-1.464;2022-10-14T14:52:45;4.43;;;2.00;;
29838;SDS011;18669;53.356;-1.464;2022-10-14T14:58:21;4.03;;;1.02;;
29838;SDS011;18669;53.356;-1.464;2022-10-14T15:00:51;1.58;;;1.00;;
29838;SDS011;18669;53.356;-1.464;2022-10-14T15:03:20;2.40;;;1.33;;
29838;SDS011;18669;53.356;-1.464;2022-10-14T15:06:02;4.03;;;1.15;;
29838;SDS011;18669;53.356;-1.464;2022-10-14T15:08:33;2.88;;;1.00;;
29838;SDS011;18669;53.356;-1.464;2022-10-14T15:11:02;4.00;;;1.20;;
29838;SDS011;18669;53.356;-1.464;2022-10-14T15:16:05;2.10;;;1.00;;
29838;SDS011;18669;53.356;-1.464;2022-10-14T15:18:32;1.48;;;0.95;;
29838;SDS011;18669;53.356;-1.464;2022-10-14T15:21:12;2.80;;;1.40;;
29838;SDS011;18669;53.356;-1.464;2022-10-14T15:23:40;4.00;;;1.67;;
29838;SDS011;18669;53.356;-1.464;2022-10-14T15:26:29;3.80;;;1.75;;
29838;SDS011;18669;53.356;-1.464;2022-10-14T15:31:30;3.35;;;1.63;;
29838;SDS011;18669;53.356;-1.464;2022-10-14T15:33:57;4.20;;;1.30;;
29838;SDS011;18669;53.356;-1.464;2022-10-14T15:36:30;8.73;;;1.90;;
29838;SDS011;18669;53.356;-1.464;2022-10-14T15:38:57;6.45;;;1.73;;
29838;SDS011;18669;53.356;-1.464;2022-10-14T15:41:26;4.35;;;1.55;;
29838;SDS011;18669;53.356;-1.464;2022-10-14T15:43:53;3.15;;;1.50;;
29838;SDS011;18669;53.356;-1.464;2022-10-14T15:49:04;7.40;;;1.80;;
29838;SDS011;18669;53.356;-1.464;2022-10-14T15:51:39;9.40;;;1.97;;
29838;SDS011;18669;53.356;-1.464;2022-10-14T15:54:08;3.58;;;1.77;;
29838;SDS011;18669;53.356;-1.464;2022-10-14T15:56:37;5.15;;;2.50;;
29838;SDS011;18669;53.356;-1.464;2022-10-14T15:59:04;8.00;;;3.38;;
29838;SDS011;18669;53.356;-1.464;2022-10-14T16:01:31;6.50;;;2.28;;
29838;SDS011;18669;53.356;-1.464;2022-10-14T16:04:00;4.60;;;2.00;;
29838;SDS011;18669;53.356;-1.464;2022-10-14T16:06:28;7.35;;;3.40;;
29838;SDS011;18669;53.356;-1.464;2022-10-14T16:08:57;6.28;;;2.15;;
29838;SDS011;18669;53.356;-1.464;2022-10-14T16:11:27;12.50;;;3.22;;
29838;SDS011;18669;53.356;-1.464;2022-10-14T16:13:55;4.95;;;2.30;;
29838;SDS011;18669;53.356;-1.464;2022-10-14T16:16:30;3.88;;;2.00;;
29838;SDS011;18669;53.356;-1.464;2022-10-14T16:18:59;4.93;;;1.90;;
29838;SDS011;18669;53.356;-1.464;2022-10-14T16:21:29;4.72;;;1.50;;
29838;SDS011;18669;53.356;-1.464;2022-10-14T16:23:55;30.20;;;27.33;;
29838;SDS011;18669;53.356;-1.464;2022-10-14T16:26:23;5.72;;;2.30;;
29838;SDS011;18669;53.356;-1.464;2022-10-14T16:28:50;3.40;;;1.85;;
29838;SDS011;18669;53.356;-1.464;2022-10-14T16:31:17;3.38;;;1.90;;
29838;SDS011;18669;53.356;-1.464;2022-10-14T16:33:43;5.38;;;1.30;;
29838;SDS011;18669;53.356;-1.464;2022-10-14T16:36:12;2.53;;;0.90;;
29838;SDS011;18669;53.356;-1.464;2022-10-14T16:38:39;1.98;;;1.02;;
29838;SDS011;18669;53.356;-1.464;2022-10-14T16:41:06;4.25;;;1.20;;
29838;SDS011;18669;53.356;-1.464;2022-10-14T16:43:34;3.13;;;1.00;;
29838;SDS011;18669;53.356;-1.464;2022-10-14T16:46:01;3.35;;;1.10;;
29838;SDS011;18669;53.356;-1.464;2022-10-14T16:48:28;2.00;;;1.08;;
29838;SDS011;18669;53.356;-1.464;2022-10-14T16:50:54;4.07;;;1.20;;
29838;SDS011;18669;53.356;-1.464;2022-10-14T16:53:21;2.60;;;1.00;;
29838;SDS011;18669;53.356;-1.464;2022-10-14T16:58:58;4.22;;;1.50;;
29838;SDS011;18669;53.356;-1.464;2022-10-14T17:01:25;3.33;;;1.23;;
29838;SDS011;18669;53.356;-1.464;2022-10-14T17:03:52;4.53;;;1.42;;
29838;SDS011;18669;53.356;-1.464;2022-10-14T17:06:20;2.92;;;1.15;;
29838;SDS011;18669;53.356;-1.464;2022-10-14T17:08:46;4.57;;;1.20;;
29838;SDS011;18669;53.356;-1.464;2022-10-14T17:11:13;4.85;;;1.38;;
29838;SDS011;18669;53.356;-1.464;2022-10-14T17:13:39;4.95;;;1.38;;
29838;SDS011;18669;53.356;-1.464;2022-10-14T17:18:32;2.27;;;1.37;;
29838;SDS011;18669;53.356;-1.464;2022-10-14T17:21:00;3.80;;;1.17;;
29838;SDS011;18669;53.356;-1.464;2022-10-14T17:23:34;4.80;;;2.88;;
29838;SDS011;18669;53.356;-1.464;2022-10-14T17:26:00;4.85;;;1.33;;
29838;SDS011;18669;53.356;-1.464;2022-10-14T17:28:28;3.95;;;1.20;;
29838;SDS011;18669;53.356;-1.464;2022-10-14T17:30:55;6.72;;;2.70;;
29838;SDS011;18669;53.356;-1.464;2022-10-14T17:33:22;5.57;;;3.58;;
29838;SDS011;18669;53.356;-1.464;2022-10-14T17:35:54;5.38;;;3.60;;
29838;SDS011;18669;53.356;-1.464;2022-10-14T17:38:24;4.57;;;1.60;;
29838;SDS011;18669;53.356;-1.464;2022-10-14T17:40:59;6.43;;;1.73;;
29838;SDS011;18669;53.356;-1.464;2022-10-14T17:43:29;6.35;;;3.97;;
29838;SDS011;18669;53.356;-1.464;2022-10-14T17:45:59;1.25;;;1.15;;
29838;SDS011;18669;53.356;-1.464;2022-10-14T17:48:26;5.10;;;1.90;;
29838;SDS011;18669;53.356;-1.464;2022-10-14T17:53:19;1.48;;;0.93;;
29838;SDS011;18669;53.356;-1.464;2022-10-14T17:55:45;5.97;;;3.50;;
29838;SDS011;18669;53.356;-1.464;2022-10-14T17:58:12;5.53;;;1.90;;
29838;SDS011;18669;53.356;-1.464;2022-10-14T18:00:38;2.25;;;1.10;;
29838;SDS011;18669;53.356;-1.464;2022-10-14T18:03:05;5.93;;;1.95;;
29838;SDS011;18669;53.356;-1.464;2022-10-14T18:05:33;6.13;;;1.60;;
29838;SDS011;18669;53.356;-1.464;2022-10-14T18:08:02;20.30;;;2.85;;
29838;SDS011;18669;53.356;-1.464;2022-10-14T18:10:30;7.93;;;2.22;;
29838;SDS011;18669;53.356;-1.464;2022-10-14T18:12:58;2.47;;;1.83;;
29838;SDS011;18669;53.356;-1.464;2022-10-14T18:15:24;5.00;;;1.65;;
29838;SDS011;18669;53.356;-1.464;2022-10-14T18:17:55;3.15;;;1.75;;
29838;SDS011;18669;53.356;-1.464;2022-10-14T18:20:22;15.20;;;8.88;;
29838;SDS011;18669;53.356;-1.464;2022-10-14T18:22:49;17.40;;;11.40;;
29838;SDS011;18669;53.356;-1.464;2022-10-14T18:25:16;5.20;;;3.70;;
29838;SDS011;18669;53.356;-1.464;2022-10-14T18:27:43;4.15;;;2.22;;
29838;SDS011;18669;53.356;-1.464;2022-10-14T18:32:36;3.75;;;1.85;;
29838;SDS011;18669;53.356;-1.464;2022-10-14T18:35:02;4.32;;;1.85;;
29838;SDS011;18669;53.356;-1.464;2022-10-14T18:37:30;6.97;;;2.70;;
29838;SDS011;18669;53.356;-1.464;2022-10-14T18:39:57;4.30;;;2.20;;
29838;SDS011;18669;53.356;-1.464;2022-10-14T18:42:24;5.25;;;2.80;;